Nevis, Saint Kitts and Nevis

9:33 AM AST on May 25, 2017 (GMT -0400)
Nevis Peak | | Change Station

Elev 965 ft 17.14 °N, 62.58 °W | Updated 3 minutes ago

Partly Cloudy
Partly Cloudy
81.0 °F
Feels Like 84 °F
N
6.3
Wind Variable Wind from SE

Today
High -- | Low -- °F
--% Chance of Precip.
Yesterday
High -- | Low -- °F
Precip. -- in
Pressure 30.09 in
Visibility 6.2 miles
Clouds Few 2400 ft
Heat Index 84 °F
Dew Point 70 °F
Humidity 68%
Rainfall 0.00 in
Snow Depth Not available.
5:36 AM 6:38 PM
Waning Crescent, 0% visible
METAR TKPN 251300Z 10008KT 9999 HZ FEW024 29/22 Q1019
Pressure 30.09 in
Visibility 6.2 miles
Clouds Few 2400 ft
Heat Index 84 °F
Dew Point 70 °F
Humidity 68%
Rainfall 0.00 in
Snow Depth Not available.
5:36 AM 6:38 PM
Waning Crescent, 0% visible
METAR TKPN 251300Z 10008KT 9999 HZ FEW024 29/22 Q1019

Get Severe Weather Alerts

Thanks for signing up!

Be on the lookout for a verification email in your inbox.

You'll start receiving the daily forecast at 6 AM.

×

10-Day Weather Forecast

No radar image for this location.
×

Almanac

Astronomy

May. 25, 2017 Rise Set
Actual Time
Civil Twilight
Nautical Twilight
Astronomical Twilight
Moon
Length of Visible Light
Length of Day
Tomorrow will be .
, % of the Moon is Illuminated

Today's Extremes

Country Highs Country Lows

Community

WunderPhotos

Category 6

Welcome to Category 6. This is the collective home for Weather Underground's featured writeups by Dr. Jeff Masters (right), Bob Henson (left), Chris Burt, and other regular contributors.

Nearby

Air Quality

  Air Quality AQ Index Pollutant
Not available.

Snow Depth

Station Depth Elevation

Earthquake Activity

City Distance Mag. Time & Date
Minimum magnitude displayed is 2.5.

Coastal Water Temperatures

Place Temperature

Stations

Nearby Weather Stations

Station Location Temp. Windchill Dew Point Humidity Wind Precip. Elev Updated Type